Time;durP1;ratioP1;P1;durP2;ratioP2;P2;SDS_P1;SDS_P2;PMS_P1;PMS_P2;Temp;Humidity;BMP_temperature;BMP_pressure;BME280_temperature;BME280_humidity;BME280_pressure;Samples;Min_cycle;Max_cycle;Signal;HPM_P1;HPM_P2
2022/07/07 00:02:10;;;;;;;0.10;0.10;;;15.90;99.90;;;;;;4982108;28;20053;-71
2022/07/07 00:04:36;;;;;;;0.28;0.28;;;15.90;99.90;;;;;;4982551;28;20085;-70
2022/07/07 00:07:02;;;;;;;0.00;0.00;;;15.90;99.90;;;;;;4982182;28;20077;-71
2022/07/07 00:09:29;;;;;;;0.10;0.00;;;15.90;99.90;;;;;;4982525;28;20046;-70
2022/07/07 00:11:55;;;;;;;0.00;0.00;;;15.90;99.90;;;;;;4982682;28;20119;-64
2022/07/07 00:14:21;;;;;;;0.10;0.10;;;15.90;99.90;;;;;;4981375;28;20508;-69
2022/07/07 00:16:47;;;;;;;0.20;0.10;;;15.90;99.90;;;;;;4981578;28;20054;-70
2022/07/07 00:19:13;;;;;;;0.28;0.20;;;15.90;99.90;;;;;;4981913;28;20049;-70
2022/07/07 00:21:39;;;;;;;0.10;0.10;;;15.90;99.90;;;;;;4982643;28;20175;-70
2022/07/07 00:24:05;;;;;;;0.17;0.17;;;15.90;99.90;;;;;;4982341;28;20045;-71
2022/07/07 00:26:31;;;;;;;0.00;0.00;;;15.90;99.90;;;;;;4982375;28;20038;-70
2022/07/07 00:28:57;;;;;;;0.10;0.10;;;15.90;99.90;;;;;;4982370;28;20054;-70
2022/07/07 00:31:23;;;;;;;0.00;0.00;;;15.90;99.90;;;;;;4981653;28;20045;-70
2022/07/07 00:33:48;;;;;;;0.17;0.17;;;15.90;99.90;;;;;;4982164;28;20117;-70
2022/07/07 00:36:14;;;;;;;0.00;0.00;;;16.00;99.90;;;;;;4982903;28;20050;-70
2022/07/07 00:38:40;;;;;;;0.10;0.10;;;15.90;99.90;;;;;;4982541;28;20042;-70
2022/07/07 00:41:06;;;;;;;0.30;0.10;;;15.90;99.90;;;;;;4982384;28;20133;-70
2022/07/07 00:43:37;;;;;;;0.40;0.10;;;15.90;99.90;;;;;;4981275;28;20043;-69
2022/07/07 00:46:03;;;;;;;0.00;0.00;;;15.90;99.90;;;;;;4980618;28;20390;-70
2022/07/07 00:48:31;;;;;;;0.00;0.00;;;15.90;99.90;;;;;;4982255;28;20386;-70
2022/07/07 00:50:57;;;;;;;0.00;0.00;;;15.90;99.90;;;;;;4982176;28;20046;-69
2022/07/07 00:53:23;;;;;;;0.10;0.10;;;15.90;99.90;;;;;;4983027;28;20056;-70
2022/07/07 00:55:49;;;;;;;0.00;0.00;;;15.90;99.90;;;;;;4986469;28;20051;-69
2022/07/07 00:58:14;;;;;;;0.22;0.22;;;15.90;99.90;;;;;;4986614;28;20122;-69
2022/07/07 01:00:41;;;;;;;0.08;0.08;;;16.00;99.90;;;;;;4985353;28;20045;-69
2022/07/07 01:03:09;;;;;;;0.00;0.00;;;15.90;99.90;;;;;;4985937;28;20561;-70
2022/07/07 01:05:36;;;;;;;0.00;0.00;;;15.90;99.90;;;;;;4986076;28;20061;-71
2022/07/07 01:08:04;;;;;;;0.00;0.00;;;16.00;99.90;;;;;;4971049;28;20126;-70
2022/07/07 01:10:30;;;;;;;0.00;0.00;;;16.00;99.90;;;;;;4966145;28;20085;-70
2022/07/07 01:12:56;;;;;;;0.00;0.00;;;15.90;99.90;;;;;;4966230;28;20046;-70
2022/07/07 01:15:22;;;;;;;0.28;0.28;;;16.00;99.90;;;;;;4965995;28;20035;-70
2022/07/07 01:17:47;;;;;;;0.00;0.00;;;16.00;99.90;;;;;;4965254;28;20126;-70
2022/07/07 01:20:13;;;;;;;0.80;0.28;;;16.20;99.90;;;;;;4966535;28;20113;-70
2022/07/07 01:22:46;;;;;;;0.03;0.03;;;16.00;99.90;;;;;;4966152;28;20042;-70
2022/07/07 01:25:12;;;;;;;0.70;0.15;;;16.00;99.90;;;;;;4965932;28;20046;-70
2022/07/07 01:27:38;;;;;;;0.00;0.00;;;16.00;99.90;;;;;;4966381;28;20370;-70
2022/07/07 01:30:04;;;;;;;0.00;0.00;;;15.90;99.90;;;;;;4966165;28;20374;-70
2022/07/07 01:32:29;;;;;;;0.00;0.00;;;15.90;99.90;;;;;;4965306;28;20133;-71
2022/07/07 01:34:55;;;;;;;0.00;0.00;;;15.90;99.90;;;;;;4948280;28;20383;-72
2022/07/07 01:37:24;;;;;;;0.00;0.00;;;15.80;99.90;;;;;;4965880;28;20027;-71
2022/07/07 01:39:50;;;;;;;0.00;0.00;;;15.80;99.90;;;;;;4966076;28;20046;-71
2022/07/07 01:42:16;;;;;;;0.10;0.10;;;15.80;99.90;;;;;;4965480;28;20050;-71
2022/07/07 01:44:44;;;;;;;0.00;0.00;;;15.70;99.90;;;;;;4975374;28;20481;-67
2022/07/07 01:47:11;;;;;;;0.00;0.00;;;15.80;99.90;;;;;;4983221;28;20065;-71
2022/07/07 01:49:37;;;;;;;0.00;0.00;;;15.70;99.90;;;;;;4984856;28;20050;-72
2022/07/07 01:52:04;;;;;;;0.00;0.00;;;15.70;99.90;;;;;;4983305;28;20539;-72
2022/07/07 01:54:32;;;;;;;0.00;0.00;;;15.70;99.90;;;;;;4984870;28;20042;-72
2022/07/07 01:56:57;;;;;;;0.00;0.00;;;15.70;99.90;;;;;;4985162;28;20089;-70
2022/07/07 01:59:23;;;;;;;0.00;0.00;;;15.60;99.90;;;;;;4984398;28;20074;-71
2022/07/07 02:01:49;;;;;;;0.13;0.10;;;15.60;99.90;;;;;;4984412;28;20139;-70
2022/07/07 02:04:14;;;;;;;0.00;0.00;;;15.60;99.90;;;;;;4985418;28;20803;-71
2022/07/07 02:06:40;;;;;;;0.00;0.00;;;15.60;99.90;;;;;;4982537;28;20043;-69
2022/07/07 02:09:06;;;;;;;0.00;0.00;;;15.60;99.90;;;;;;4984117;28;20070;-71
2022/07/07 02:11:32;;;;;;;0.00;0.00;;;15.60;99.90;;;;;;4984452;28;20485;-70
2022/07/07 02:13:58;;;;;;;0.00;0.00;;;15.60;99.90;;;;;;4984571;28;20042;-68
2022/07/07 02:16:25;;;;;;;0.00;0.00;;;15.80;99.90;;;;;;4983871;28;20045;-70
2022/07/07 02:19:00;;;;;;;0.00;0.00;;;15.60;99.90;;;;;;4982698;28;20042;-69
2022/07/07 02:21:26;;;;;;;;;;;15.70;99.90;;;;;;4984845;28;20042;-68
2022/07/07 02:23:53;;;;;;;0.00;0.00;;;15.60;99.90;;;;;;4984877;28;20411;-70
2022/07/07 02:26:19;;;;;;;0.00;0.00;;;15.70;99.90;;;;;;4983519;28;20109;-68
2022/07/07 02:28:45;;;;;;;0.00;0.00;;;15.60;99.90;;;;;;4984876;28;20086;-69
2022/07/07 02:31:11;;;;;;;0.00;0.00;;;15.70;99.90;;;;;;4984014;28;20042;-69
2022/07/07 02:33:37;;;;;;;0.00;0.00;;;15.60;99.90;;;;;;4983748;28;20054;-70
2022/07/07 02:36:05;;;;;;;0.00;0.00;;;15.60;99.90;;;;;;4984132;28;20054;-69
2022/07/07 02:38:31;;;;;;;0.00;0.00;;;15.60;99.90;;;;;;4984154;28;20042;-69
2022/07/07 02:40:57;;;;;;;0.00;0.00;;;15.60;99.90;;;;;;4984194;28;20046;-68
2022/07/07 02:43:23;;;;;;;0.00;0.00;;;15.60;99.90;;;;;;4983415;28;20092;-69
2022/07/07 02:45:50;;;;;;;0.00;0.00;;;15.60;99.90;;;;;;4982984;28;20047;-69
2022/07/07 02:48:21;;;;;;;0.00;0.00;;;15.60;99.90;;;;;;4983878;28;20586;-62
2022/07/07 02:50:47;;;;;;;0.00;0.00;;;15.60;99.90;;;;;;4983526;28;20046;-69
2022/07/07 02:53:14;;;;;;;0.00;0.00;;;15.70;99.90;;;;;;4984221;28;20105;-70
2022/07/07 02:55:40;;;;;;;0.00;0.00;;;15.60;99.90;;;;;;4966368;28;20429;-69
2022/07/07 02:58:08;;;;;;;0.00;0.00;;;15.60;99.90;;;;;;4983839;28;20065;-69
2022/07/07 03:00:35;;;;;;;0.00;0.00;;;15.70;99.90;;;;;;4982350;28;20046;-69
2022/07/07 03:03:05;;;;;;;0.00;0.00;;;15.70;99.90;;;;;;4983521;28;20061;-69
2022/07/07 03:05:32;;;;;;;0.03;0.03;;;15.70;99.90;;;;;;4983531;28;20059;-69
2022/07/07 03:07:58;;;;;;;0.00;0.00;;;15.70;99.90;;;;;;4983081;28;20053;-69
2022/07/07 03:10:24;;;;;;;0.00;0.00;;;15.60;99.90;;;;;;4983228;28;20165;-70
2022/07/07 03:12:50;;;;;;;0.00;0.00;;;15.70;99.90;;;;;;4983597;28;20141;-70
2022/07/07 03:15:16;;;;;;;0.00;0.00;;;15.70;99.90;;;;;;4983546;28;20046;-61
2022/07/07 03:17:42;;;;;;;0.00;0.00;;;15.70;99.90;;;;;;4981679;28;20039;-63
2022/07/07 03:20:10;;;;;;;0.00;0.00;;;15.70;99.90;;;;;;4983573;28;20057;-70
2022/07/07 03:22:37;;;;;;;0.00;0.00;;;15.60;99.90;;;;;;4983395;28;20050;-70
2022/07/07 03:25:03;;;;;;;0.00;0.00;;;15.60;99.90;;;;;;4982661;28;20050;-71
2022/07/07 03:27:29;;;;;;;0.00;0.00;;;15.60;99.90;;;;;;4983411;28;20052;-70
2022/07/07 03:29:55;;;;;;;0.00;0.00;;;15.60;99.90;;;;;;4983227;28;20497;-70
2022/07/07 03:32:20;;;;;;;0.00;0.00;;;15.60;99.90;;;;;;4982407;28;20045;-69
2022/07/07 03:34:46;;;;;;;0.00;0.00;;;15.60;99.90;;;;;;4982614;28;20046;-70
2022/07/07 03:37:12;;;;;;;0.00;0.00;;;15.60;99.90;;;;;;4983599;28;20039;-70
2022/07/07 03:39:37;;;;;;;0.00;0.00;;;15.60;99.90;;;;;;4983217;28;20100;-70
2022/07/07 03:42:03;;;;;;;0.00;0.00;;;15.60;99.90;;;;;;4983160;28;20050;-70
2022/07/07 03:44:29;;;;;;;0.00;0.00;;;15.50;99.90;;;;;;4981585;28;20042;-70
2022/07/07 03:46:54;;;;;;;0.00;0.00;;;15.60;99.90;;;;;;4982217;28;20093;-69
2022/07/07 03:49:20;;;;;;;0.00;0.00;;;15.60;99.90;;;;;;4982882;28;20119;-69
2022/07/07 03:51:46;;;;;;;0.00;0.00;;;15.60;99.90;;;;;;4981940;28;20050;-69
2022/07/07 03:54:12;;;;;;;0.00;0.00;;;15.60;99.90;;;;;;4982928;28;20054;-70
2022/07/07 03:56:39;;;;;;;0.00;0.00;;;15.60;99.90;;;;;;4982551;28;20042;-69
2022/07/07 03:59:04;;;;;;;0.00;0.00;;;15.50;99.90;;;;;;4982656;28;20128;-70
2022/07/07 04:01:30;;;;;;;0.00;0.00;;;15.50;99.90;;;;;;4981228;28;20105;-70
2022/07/07 04:03:56;;;;;;;0.00;0.00;;;15.50;99.90;;;;;;4982999;28;20069;-68
2022/07/07 04:06:22;;;;;;;0.00;0.00;;;15.50;99.90;;;;;;4982768;28;20046;-69
2022/07/07 04:08:47;;;;;;;0.00;0.00;;;15.50;99.90;;;;;;4982757;28;20035;-69
2022/07/07 04:11:13;;;;;;;0.00;0.00;;;15.40;99.90;;;;;;4982850;28;20536;-72
2022/07/07 04:13:39;;;;;;;0.00;0.00;;;15.40;99.90;;;;;;4982413;28;20320;-69
2022/07/07 04:16:04;;;;;;;0.00;0.00;;;15.50;99.90;;;;;;4982165;28;20160;-71
2022/07/07 04:18:30;;;;;;;0.00;0.00;;;15.40;99.90;;;;;;4982664;28;20042;-69
2022/07/07 04:20:56;;;;;;;0.05;0.00;;;15.50;99.90;;;;;;4982142;28;20792;-67
2022/07/07 04:23:21;;;;;;;0.00;0.00;;;15.40;99.90;;;;;;4982312;28;20113;-68
2022/07/07 04:25:47;;;;;;;0.00;0.00;;;15.50;99.90;;;;;;4982568;28;20497;-68
2022/07/07 04:28:13;;;;;;;0.00;0.00;;;15.50;99.90;;;;;;4981398;28;20058;-69
2022/07/07 04:30:38;;;;;;;0.00;0.00;;;15.40;99.90;;;;;;4985713;28;20088;-72
2022/07/07 04:33:04;;;;;;;0.00;0.00;;;15.40;99.90;;;;;;4986552;28;20082;-72
2022/07/07 04:35:30;;;;;;;0.00;0.00;;;15.40;99.90;;;;;;4986523;28;20081;-72
2022/07/07 04:37:56;;;;;;;0.00;0.00;;;15.30;99.90;;;;;;4986110;28;20043;-72
2022/07/07 04:40:21;;;;;;;0.00;0.00;;;15.30;99.90;;;;;;4986261;28;20464;-72
2022/07/07 04:42:47;;;;;;;0.00;0.00;;;15.30;99.90;;;;;;4986537;28;20456;-71
2022/07/07 04:45:13;;;;;;;0.00;0.00;;;15.30;99.90;;;;;;4985546;28;20137;-71
2022/07/07 04:47:40;;;;;;;0.00;0.00;;;15.20;99.90;;;;;;4985847;28;20186;-71
2022/07/07 04:50:10;;;;;;;0.00;0.00;;;15.20;99.90;;;;;;4986196;28;20112;-71
2022/07/07 04:52:36;;;;;;;0.00;0.00;;;15.20;99.90;;;;;;4984593;28;20054;-70
2022/07/07 04:55:03;;;;;;;0.00;0.00;;;15.20;99.90;;;;;;4985658;28;20448;-69
2022/07/07 04:57:29;;;;;;;0.00;0.00;;;15.20;99.90;;;;;;4986388;28;20049;-69
2022/07/07 04:59:54;;;;;;;0.00;0.00;;;15.20;99.90;;;;;;4986232;28;20042;-69
2022/07/07 05:02:20;;;;;;;0.00;0.00;;;15.20;99.90;;;;;;4985011;28;20058;-69
2022/07/07 05:04:46;;;;;;;0.00;0.00;;;15.20;99.90;;;;;;4985539;28;20120;-69
2022/07/07 05:07:11;;;;;;;0.00;0.00;;;15.20;99.90;;;;;;4986454;28;20054;-70
2022/07/07 05:09:37;;;;;;;0.00;0.00;;;15.10;99.90;;;;;;4985746;28;20121;-70
2022/07/07 05:12:03;;;;;;;0.00;0.00;;;14.90;99.90;;;;;;4985500;28;20533;-70
2022/07/07 05:14:29;;;;;;;0.00;0.00;;;14.90;99.90;;;;;;4984769;28;20054;-70
2022/07/07 05:16:55;;;;;;;0.00;0.00;;;14.80;99.90;;;;;;4984526;28;20042;-69
2022/07/07 05:19:22;;;;;;;0.00;0.00;;;14.70;99.90;;;;;;4985483;28;20050;-68
2022/07/07 05:21:48;;;;;;;0.00;0.00;;;14.70;99.90;;;;;;4984850;28;20081;-69
2022/07/07 05:24:14;;;;;;;0.00;0.00;;;14.70;99.90;;;;;;4985637;28;20081;-69
2022/07/07 05:26:40;;;;;;;0.00;0.00;;;14.80;99.90;;;;;;4985459;28;20049;-68
2022/07/07 05:29:06;;;;;;;0.00;0.00;;;14.80;99.90;;;;;;4985261;28;20321;-69
2022/07/07 05:31:32;;;;;;;0.00;0.00;;;14.80;99.90;;;;;;4984044;28;20085;-70
2022/07/07 05:33:58;;;;;;;0.00;0.00;;;14.70;99.90;;;;;;4985216;28;20080;-69
2022/07/07 05:36:23;;;;;;;0.00;0.00;;;14.80;99.90;;;;;;4985259;28;20505;-69
2022/07/07 05:38:50;;;;;;;0.00;0.00;;;14.80;99.90;;;;;;4985041;28;20698;-71
2022/07/07 05:41:17;;;;;;;0.00;0.00;;;14.80;99.90;;;;;;4983598;28;20058;-71
2022/07/07 05:43:42;;;;;;;0.00;0.00;;;14.80;99.90;;;;;;4985055;28;20038;-71
2022/07/07 05:46:08;;;;;;;0.00;0.00;;;14.90;99.90;;;;;;4984672;28;20147;-71
2022/07/07 05:48:34;;;;;;;0.00;0.00;;;14.80;99.90;;;;;;4983048;28;20129;-72
2022/07/07 05:50:59;;;;;;;0.00;0.00;;;14.80;99.90;;;;;;4985021;28;20083;-72
2022/07/07 05:53:25;;;;;;;0.00;0.00;;;14.90;99.90;;;;;;4984937;28;20052;-71
2022/07/07 05:55:51;;;;;;;0.00;0.00;;;14.90;99.90;;;;;;4984871;28;20054;-71
2022/07/07 05:58:16;;;;;;;0.00;0.00;;;14.90;99.90;;;;;;4982959;28;20125;-64
2022/07/07 06:00:42;;;;;;;0.00;0.00;;;14.90;99.90;;;;;;4984449;28;20741;-68
2022/07/07 06:03:08;;;;;;;0.00;0.00;;;15.00;99.90;;;;;;4984778;28;20058;-69
2022/07/07 06:05:34;;;;;;;0.00;0.00;;;15.00;99.90;;;;;;4984565;28;20061;-69
2022/07/07 06:07:59;;;;;;;0.00;0.00;;;15.00;99.90;;;;;;4984111;28;20116;-69
2022/07/07 06:10:25;;;;;;;0.00;0.00;;;15.10;99.90;;;;;;4984151;28;20460;-70
2022/07/07 06:12:51;;;;;;;0.00;0.00;;;15.10;99.90;;;;;;4984376;28;20837;-69
2022/07/07 06:15:20;;;;;;;0.00;0.00;;;15.10;99.90;;;;;;4983331;28;20092;-68
2022/07/07 06:17:46;;;;;;;0.15;0.13;;;15.10;99.90;;;;;;4984603;28;20054;-69
2022/07/07 06:20:12;;;;;;;0.00;0.00;;;15.10;99.90;;;;;;4984659;28;20046;-69
2022/07/07 06:22:38;;;;;;;0.00;0.00;;;15.10;99.90;;;;;;4984135;28;20050;-69
2022/07/07 06:25:04;;;;;;;0.00;0.00;;;15.00;99.90;;;;;;4984072;28;20069;-69
2022/07/07 06:27:30;;;;;;;0.00;0.00;;;15.10;99.90;;;;;;4984093;28;20039;-69
2022/07/07 06:29:57;;;;;;;0.00;0.00;;;15.10;99.90;;;;;;4983448;28;20053;-69
2022/07/07 06:32:22;;;;;;;0.00;0.00;;;15.20;99.90;;;;;;4982210;28;20121;-70
2022/07/07 06:34:48;;;;;;;0.00;0.00;;;15.20;99.90;;;;;;4966600;28;20177;-69
2022/07/07 06:37:14;;;;;;;0.00;0.00;;;15.30;99.90;;;;;;4984348;28;20038;-69
2022/07/07 06:39:40;;;;;;;0.00;0.00;;;15.30;99.90;;;;;;4984096;28;20045;-69
2022/07/07 06:42:05;;;;;;;0.00;0.00;;;15.30;99.90;;;;;;4965838;28;20123;-69
2022/07/07 06:44:32;;;;;;;0.00;0.00;;;15.30;99.90;;;;;;4983240;28;20045;-68
2022/07/07 06:46:58;;;;;;;0.00;0.00;;;15.40;99.90;;;;;;4983054;28;20038;-69
2022/07/07 06:49:25;;;;;;;0.00;0.00;;;15.50;99.90;;;;;;4983747;28;20038;-69
2022/07/07 06:51:51;;;;;;;0.00;0.00;;;15.60;99.90;;;;;;4983184;28;20049;-69
2022/07/07 06:54:16;;;;;;;0.00;0.00;;;15.60;99.90;;;;;;4983385;28;20042;-62
2022/07/07 06:56:42;;;;;;;0.00;0.00;;;15.60;99.90;;;;;;4984092;28;20053;-67
2022/07/07 06:59:08;;;;;;;0.00;0.00;;;15.60;99.90;;;;;;4983711;28;20057;-68
2022/07/07 07:01:33;;;;;;;0.00;0.00;;;15.60;99.90;;;;;;4982361;28;20109;-70
2022/07/07 07:03:59;;;;;;;0.00;0.00;;;15.70;99.90;;;;;;4983720;28;20049;-70
2022/07/07 07:06:25;;;;;;;0.00;0.00;;;15.70;99.90;;;;;;4983680;28;20066;-68
2022/07/07 07:08:51;;;;;;;0.00;0.00;;;15.80;99.90;;;;;;4982762;28;20563;-69
2022/07/07 07:11:16;;;;;;;0.00;0.00;;;16.00;99.90;;;;;;4983447;28;20039;-68
2022/07/07 07:13:42;;;;;;;0.00;0.00;;;16.10;99.90;;;;;;4984149;28;20130;-68
2022/07/07 07:16:08;;;;;;;0.00;0.00;;;16.20;99.90;;;;;;4982539;28;20050;-70
2022/07/07 07:18:34;;;;;;;0.00;0.00;;;16.30;99.90;;;;;;4982635;28;20046;-69
2022/07/07 07:20:59;;;;;;;0.00;0.00;;;16.40;99.90;;;;;;4982141;28;20093;-71
2022/07/07 07:23:25;;;;;;;0.00;0.00;;;16.40;99.90;;;;;;4983048;28;20085;-70
2022/07/07 07:25:51;;;;;;;0.00;0.00;;;16.60;99.90;;;;;;4983220;28;20134;-71
2022/07/07 07:28:16;;;;;;;0.00;0.00;;;17.00;99.90;;;;;;4982348;28;20057;-65
2022/07/07 07:30:42;;;;;;;0.00;0.00;;;17.50;99.90;;;;;;4982954;28;20050;-70
2022/07/07 07:33:08;;;;;;;0.00;0.00;;;18.10;99.90;;;;;;4982914;28;20397;-71
2022/07/07 07:35:34;;;;;;;0.00;0.00;;;18.10;99.90;;;;;;4982217;28;20047;-69
2022/07/07 07:37:59;;;;;;;0.00;0.00;;;17.70;99.90;;;;;;4983018;28;20962;-69
2022/07/07 07:40:26;;;;;;;0.00;0.00;;;18.10;99.90;;;;;;4982328;28;20125;-69
2022/07/07 07:42:51;;;;;;;0.00;0.00;;;18.40;99.90;;;;;;4982961;28;20081;-69
2022/07/07 07:45:17;;;;;;;0.00;0.00;;;18.30;99.90;;;;;;4980972;28;20077;-67
2022/07/07 07:47:45;;;;;;;0.00;0.00;;;18.20;99.90;;;;;;4982972;28;20096;-69
2022/07/07 07:50:18;;;;;;;0.00;0.00;;;17.80;99.90;;;;;;4982797;28;20042;-69
2022/07/07 07:52:45;;;;;;;0.00;0.00;;;17.30;99.90;;;;;;4982361;28;20089;-71
2022/07/07 07:55:13;;;;;;;0.00;0.00;;;17.20;99.90;;;;;;4983137;28;20042;-68
2022/07/07 07:57:39;;;;;;;0.00;0.00;;;17.10;99.90;;;;;;4982404;28;20100;-70
2022/07/07 08:00:08;;;;;;;0.00;0.00;;;17.00;99.90;;;;;;4981881;28;20501;-69
2022/07/07 08:02:34;;;;;;;0.00;0.00;;;16.90;99.90;;;;;;4981561;28;20067;-69
2022/07/07 08:05:00;;;;;;;0.00;0.00;;;16.80;99.90;;;;;;4981939;28;20394;-69
2022/07/07 08:07:25;;;;;;;0.00;0.00;;;16.80;99.90;;;;;;4982161;28;20042;-69
2022/07/07 08:09:51;;;;;;;0.00;0.00;;;16.80;99.90;;;;;;4980513;28;20045;-69
2022/07/07 08:12:17;;;;;;;0.00;0.00;;;16.70;99.90;;;;;;4982352;28;20551;-68
2022/07/07 08:14:42;;;;;;;0.00;0.00;;;16.90;99.90;;;;;;4982279;28;20089;-68
2022/07/07 08:17:08;;;;;;;0.00;0.00;;;17.10;99.90;;;;;;4982398;28;20616;-69
2022/07/07 08:19:34;;;;;;;0.00;0.00;;;17.30;99.90;;;;;;4981754;28;20046;-69
2022/07/07 08:21:59;;;;;;;0.00;0.00;;;17.50;99.90;;;;;;4980960;28;20050;-68
2022/07/07 08:24:25;;;;;;;0.00;0.00;;;17.60;99.90;;;;;;4982092;28;20058;-69
2022/07/07 08:26:51;;;;;;;0.00;0.00;;;17.50;99.90;;;;;;4982537;28;20125;-69
2022/07/07 08:29:17;;;;;;;0.00;0.00;;;17.60;99.90;;;;;;4981607;28;20180;-69
2022/07/07 08:31:42;;;;;;;0.00;0.00;;;17.70;99.90;;;;;;4981962;28;20485;-67
2022/07/07 08:34:08;;;;;;;0.00;0.00;;;17.80;99.90;;;;;;4981930;28;20457;-70
2022/07/07 08:36:34;;;;;;;0.00;0.00;;;18.00;99.90;;;;;;4982038;28;20082;-71
2022/07/07 08:39:00;;;;;;;0.00;0.00;;;18.20;99.90;;;;;;4980957;28;20046;-70
2022/07/07 08:41:26;;;;;;;0.00;0.00;;;18.20;99.90;;;;;;4982024;28;20043;-71
2022/07/07 08:43:52;;;;;;;0.00;0.00;;;18.00;99.90;;;;;;4981957;28;20065;-70
2022/07/07 08:46:18;;;;;;;0.00;0.00;;;17.70;99.90;;;;;;4980539;28;20034;-69
2022/07/07 08:48:44;;;;;;;0.00;0.00;;;17.40;99.90;;;;;;4982318;28;20047;-69
2022/07/07 08:51:10;;;;;;;0.00;0.00;;;17.70;99.90;;;;;;4982138;28;20039;-69
2022/07/07 08:53:37;;;;;;;0.00;0.00;;;17.80;99.90;;;;;;4982189;28;20422;-70
2022/07/07 08:56:09;;;;;;;0.00;0.00;;;18.00;99.90;;;;;;4981566;28;20561;-70
2022/07/07 08:58:36;;;;;;;0.00;0.00;;;17.90;99.90;;;;;;4981945;28;20073;-71
2022/07/07 09:01:04;;;;;;;0.00;0.00;;;17.50;99.90;;;;;;4981310;28;20046;-70
2022/07/07 09:03:29;;;;;;;0.00;0.00;;;17.30;99.90;;;;;;4979985;28;20065;-69
2022/07/07 09:05:57;;;;;;;0.00;0.00;;;17.60;99.90;;;;;;4982370;28;20043;-69
2022/07/07 09:08:24;;;;;;;0.00;0.00;;;17.70;99.90;;;;;;4981738;28;20055;-70
2022/07/07 09:10:51;;;;;;;0.00;0.00;;;18.00;99.90;;;;;;4981895;28;20480;-70
2022/07/07 09:13:22;;;;;;;0.00;0.00;;;18.20;99.90;;;;;;4981516;28;20038;-63
2022/07/07 09:15:49;;;;;;;0.00;0.00;;;18.50;99.90;;;;;;4983995;28;20038;-69
2022/07/07 09:18:36;;;;;;;0.00;0.00;;;18.70;99.90;;;;;;4985794;28;20053;-63
2022/07/07 09:21:04;;;;;;;0.00;0.00;;;19.10;99.90;;;;;;4985597;28;20053;-70
2022/07/07 09:23:30;;;;;;;0.00;0.00;;;19.40;99.90;;;;;;4985304;28;20124;-71
2022/07/07 09:25:56;;;;;;;0.00;0.00;;;19.20;99.90;;;;;;4984996;28;20046;-70
2022/07/07 09:28:24;;;;;;;0.00;0.00;;;18.90;99.90;;;;;;4985108;28;20174;-70
2022/07/07 09:30:50;;;;;;;0.00;0.00;;;18.60;99.90;;;;;;4984476;28;20051;-70
2022/07/07 09:33:21;;;;;;;0.00;0.00;;;18.40;99.90;;;;;;4985068;28;20108;-69
2022/07/07 09:38:33;;;;;;;0.00;0.00;;;18.10;99.90;;;;;;4984662;28;20047;-69
2022/07/07 09:41:03;;;;;;;0.00;0.00;;;18.00;99.90;;;;;;4984988;28;20457;-69
2022/07/07 09:43:32;;;;;;;0.00;0.00;;;18.20;99.90;;;;;;4985087;28;20046;-69
2022/07/07 09:46:14;;;;;;;0.00;0.00;;;18.20;99.90;;;;;;4982559;28;20062;-69
2022/07/07 09:48:49;;;;;;;0.00;0.00;;;18.20;99.90;;;;;;4984249;28;20061;-70
2022/07/07 09:51:23;;;;;;;0.00;0.00;;;18.10;99.90;;;;;;4985356;28;20049;-66
2022/07/07 09:54:07;;;;;;;0.00;0.00;;;18.10;99.90;;;;;;4984394;28;20047;-65
2022/07/07 09:56:39;;;;;;;0.00;0.00;;;18.40;99.90;;;;;;4983279;28;20065;-64
2022/07/07 09:59:08;;;;;;;0.00;0.00;;;18.60;99.90;;;;;;4984462;28;20511;-66
2022/07/07 10:01:39;;;;;;;0.00;0.00;;;18.60;99.90;;;;;;4983971;28;20625;-67
2022/07/07 10:04:07;;;;;;;0.00;0.00;;;18.40;99.90;;;;;;4984375;28;20046;-67
2022/07/07 10:06:36;;;;;;;0.00;0.00;;;18.30;99.90;;;;;;4982872;28;20100;-63
2022/07/07 10:09:07;;;;;;;0.00;0.00;;;18.40;99.90;;;;;;4984426;28;20421;-63
2022/07/07 10:11:44;;;;;;;0.00;0.00;;;18.40;99.90;;;;;;4984239;28;20458;-60
2022/07/07 10:14:41;;;;;;;0.00;0.00;;;18.50;99.90;;;;;;4983805;28;20089;-67
2022/07/07 10:17:07;;;;;;;0.00;0.00;;;18.80;99.90;;;;;;4978172;28;20061;-65
2022/07/07 10:19:33;;;;;;;0.00;0.00;;;18.80;99.90;;;;;;4983643;28;20421;-66
2022/07/07 10:22:00;;;;;;;0.00;0.00;;;18.90;99.90;;;;;;4984413;28;20041;-65
2022/07/07 10:24:27;;;;;;;0.00;0.00;;;18.80;99.90;;;;;;4983042;28;20046;-66
2022/07/07 10:26:55;;;;;;;0.00;0.00;;;18.50;99.90;;;;;;4983407;28;20030;-66
2022/07/07 10:29:46;;;;;;;0.00;0.00;;;18.30;99.90;;;;;;4982903;28;20054;-66
2022/07/07 10:32:17;;;;;;;0.00;0.00;;;18.30;99.90;;;;;;4984371;28;20149;-62
2022/07/07 10:34:51;;;;;;;0.00;0.00;;;18.30;99.90;;;;;;4984652;28;20515;-61
2022/07/07 10:37:17;;;;;;;0.00;0.00;;;18.40;99.90;;;;;;4983942;28;20054;-74
2022/07/07 10:39:48;;;;;;;0.00;0.00;;;18.50;99.90;;;;;;4984632;28;20393;-65
2022/07/07 10:42:24;;;;;;;0.00;0.00;;;18.70;99.90;;;;;;4983138;28;20133;-69
2022/07/07 10:44:52;;;;;;;0.00;0.00;;;18.60;99.90;;;;;;4981086;28;20458;-61
2022/07/07 10:47:17;;;;;;;0.00;0.00;;;18.40;99.90;;;;;;4981750;28;20392;-66
2022/07/07 10:49:53;;;;;;;0.00;0.00;;;18.10;99.90;;;;;;4984094;28;20046;-65
2022/07/07 10:52:21;;;;;;;0.00;0.00;;;18.20;99.90;;;;;;4983616;28;20043;-66
2022/07/07 10:54:49;;;;;;;0.00;0.00;;;18.00;99.90;;;;;;4984040;28;20129;-62
2022/07/07 10:57:23;;;;;;;0.00;0.00;;;18.10;99.90;;;;;;4982619;28;20146;-63
2022/07/07 11:00:01;;;;;;;0.00;0.00;;;18.20;99.90;;;;;;4983456;28;20097;-62
2022/07/07 11:02:32;;;;;;;0.00;0.00;;;18.00;99.90;;;;;;4982637;28;20508;-61
2022/07/07 11:05:00;;;;;;;0.10;0.05;;;18.00;99.90;;;;;;4983495;28;20574;-61
2022/07/07 11:07:27;;;;;;;0.00;0.00;;;17.90;99.90;;;;;;4983224;28;20089;-67
2022/07/07 11:09:58;;;;;;;0.00;0.00;;;18.00;99.90;;;;;;4982950;28;20046;-62
2022/07/07 11:12:40;;;;;;;0.00;0.00;;;18.00;99.90;;;;;;4983338;28;20093;-61
2022/07/07 11:15:15;;;;;;;0.00;0.00;;;18.00;99.90;;;;;;4983348;28;20125;-61
2022/07/07 11:17:45;;;;;;;0.00;0.00;;;17.90;99.90;;;;;;4983605;28;20093;-61
2022/07/07 11:20:17;;;;;;;0.00;0.00;;;18.00;99.90;;;;;;4983533;28;20100;-61
2022/07/07 11:22:53;;;;;;;0.10;0.10;;;18.00;99.90;;;;;;4983119;28;20050;-61
2022/07/07 11:25:21;;;;;;;0.00;0.00;;;18.10;99.90;;;;;;4981847;28;20072;-61
2022/07/07 11:27:49;;;;;;;0.20;0.20;;;18.20;99.90;;;;;;4983064;28;20048;-61
2022/07/07 11:30:16;;;;;;;0.00;0.00;;;18.40;99.90;;;;;;4982204;28;20648;-67
2022/07/07 11:32:43;;;;;;;0.00;0.00;;;18.50;99.90;;;;;;4981924;28;20077;-61
2022/07/07 11:35:11;;;;;;;0.00;0.00;;;18.50;99.90;;;;;;4983327;28;20085;-59
2022/07/07 11:37:39;;;;;;;0.00;0.00;;;18.50;99.90;;;;;;4982207;28;20088;-59
2022/07/07 11:40:23;;;;;;;0.00;0.00;;;18.50;99.90;;;;;;4982783;28;20057;-60
2022/07/07 11:42:49;;;;;;;;;;;18.50;99.90;;;;;;4983306;28;20050;-58
2022/07/07 11:45:18;;;;;;;0.00;0.00;;;18.60;99.90;;;;;;4981246;28;20666;-65
2022/07/07 11:47:44;;;;;;;0.00;0.00;;;18.70;99.90;;;;;;4976351;28;20058;-63
2022/07/07 11:50:10;;;;;;;0.00;0.00;;;18.40;99.90;;;;;;4981462;28;20046;-64
2022/07/07 11:52:36;;;;;;;0.00;0.00;;;18.50;99.90;;;;;;4982112;28;20142;-60
2022/07/07 11:55:05;;;;;;;0.00;0.00;;;18.50;99.90;;;;;;4981879;28;20101;-64
2022/07/07 11:57:37;;;;;;;0.00;0.00;;;18.50;99.90;;;;;;4982102;28;20046;-68
2022/07/07 12:00:20;;;;;;;0.00;0.00;;;18.50;99.90;;;;;;4978049;28;20046;-66
2022/07/07 12:02:48;;;;;;;0.00;0.00;;;18.50;99.90;;;;;;4981591;28;20065;-64
2022/07/07 12:05:43;;;;;;;0.00;0.00;;;18.70;99.90;;;;;;4980965;28;20121;-72
2022/07/07 12:08:11;;;;;;;0.00;0.00;;;18.40;99.90;;;;;;4974428;28;20051;-76
2022/07/07 12:10:39;;;;;;;0.00;0.00;;;18.50;99.90;;;;;;4981693;28;20708;-70
2022/07/07 12:13:13;;;;;;;0.00;0.00;;;18.50;99.90;;;;;;4979655;28;20073;-76
2022/07/07 12:15:48;;;;;;;0.10;0.10;;;18.60;99.90;;;;;;4981128;28;20072;-70
2022/07/07 12:18:24;;;;;;;0.00;0.00;;;18.30;99.90;;;;;;4982451;28;20430;-67
2022/07/07 12:21:21;;;;;;;0.00;0.00;;;18.60;99.90;;;;;;4982501;28;20464;-71
2022/07/07 12:23:50;;;;;;;0.10;0.00;;;18.80;99.90;;;;;;4980632;28;20421;-73
2022/07/07 12:26:18;;;;;;;0.00;0.00;;;19.10;99.90;;;;;;4982203;28;20042;-57
2022/07/07 12:28:45;;;;;;;0.00;0.00;;;19.30;99.90;;;;;;4982668;28;20099;-57
2022/07/07 12:31:18;;;;;;;0.00;0.00;;;19.20;99.90;;;;;;4980566;28;20110;-67
2022/07/07 12:33:45;;;;;;;0.00;0.00;;;19.10;99.90;;;;;;4981971;28;20034;-64
2022/07/07 12:36:29;;;;;;;0.00;0.00;;;18.80;99.90;;;;;;4981249;28;20077;-68
2022/07/07 12:38:57;;;;;;;;;;;18.70;99.90;;;;;;4982262;28;20112;-62
2022/07/07 12:41:33;;;;;;;0.00;0.00;;;18.40;99.90;;;;;;4981785;28;19928;-66
2022/07/07 12:44:22;;;;;;;0.00;0.00;;;18.40;99.90;;;;;;4980969;28;20070;-64
2022/07/07 12:46:48;;;;;;;0.00;0.00;;;18.60;99.90;;;;;;4980897;28;20472;-63
2022/07/07 12:49:14;;;;;;;0.03;0.03;;;18.50;99.90;;;;;;4983062;28;20046;-63
2022/07/07 12:51:42;;;;;;;0.00;0.00;;;18.30;99.90;;;;;;4985380;28;20100;-66
2022/07/07 12:54:21;;;;;;;0.00;0.00;;;18.30;99.90;;;;;;4986083;28;20069;-68